CMA CGM Musca — 2CAC8 — position and weather

sailwx.info

Track history (hours):
 
Tides and Currents Weather Stations Pressure Air Temp Water Temp Dewpoint Dewpoint Depression Visibility Wind Speed Wind Dir Waves Ship Positions

CMA CGM Musca

Last reported at 2017-Feb-24 23:24 UTC. Time now 2017-Feb-25 20:38 UTC.
Position N 34°39' E 035°03'.

Length 347 m; draft 13.7 m.

Type: Ship (hazmat cat A). MMSI: 235070914.

Date/timePositionNaut miles runAvg speedWind from/ knotsBaromVisibWave heightAir tempDewpointWater temp
2017-Feb-24 23:24N 34°39' E 035°03'1715.3
2017-Feb-24 22:16N 34°22' E 035°06'1115.3
2017-Feb-24 21:34N 34°11' E 035°09'1515.3
2017-Feb-24 20:33N 33°56' E 035°11'24 1.4
2017-Feb-24 03:33N 33°39' E 034°50'  
2017-Feb-20 06:26N 35°45' E 014°48'1313.7
2017-Feb-20 05:29N 35°49' E 014°33'1 0.1
2017-Feb-19 18:05N 35°49' E 014°32'0 0.0
2017-Feb-19 16:29N 35°49' E 014°32'1 0.1
2017-Feb-19 05:32N 35°49' E 014°34'8 6.7
2017-Feb-19 04:17N 35°45' E 014°24'1520.8
2017-Feb-19 03:32N 35°53' E 014°08'2420.5
2017-Feb-19 02:22N 36°06' E 013°43'55421.2
2017-Feb-18 00:15N 40°42' E 003°30'1521.2
2017-Feb-17 23:33N 40°49' E 003°13'2121.3
2017-Feb-17 22:33N 40°59' E 002°48'2221.5
2017-Feb-17 21:33N 41°09' E 002°23'1413.7
2017-Feb-17 20:32N 41°19' E 002°10'2 1.5
2017-Feb-17 19:32N 41°21' E 002°10'1 0.0
2017-Feb-16 04:30N 41°20' E 002°10'5 4.8
2017-Feb-16 03:33N 41°15' E 002°12'1414.0
2017-Feb-16 02:33N 41°05' E 002°00'2221.9
2017-Feb-16 01:34N 40°49' E 001°41'2222.4
2017-Feb-16 00:33N 40°33' E 001°20'2322.6
2017-Feb-15 23:33N 40°18' E 000°58'6722.3
2017-Feb-15 20:33N 39°32' W 000°06'1211.4
2017-Feb-15 19:32N 39°26' W 000°19'0 0.0
2017-Feb-15 18:25N 39°26' W 000°19'0 0.0
2017-Feb-15 17:27N 39°26' W 000°19'0 0.0
2017-Feb-15 16:30N 39°26' W 000°19'0 0.0
2017-Feb-15 15:24N 39°26' W 000°19'0 0.0
2017-Feb-15 14:08N 39°26' W 000°19'0 0.0
2017-Feb-15 09:09N 39°26' W 000°19'0 0.0
2017-Feb-15 05:31N 39°26' W 000°19'  
Track history (hours):
 
Tides and Currents Weather Stations Pressure Air Temp Water Temp Dewpoint Dewpoint Depression Visibility Wind Speed Wind Dir Waves Ship Positions

CMA CGM Musca

Last reported at 2017-Feb-24 23:24 UTC. Time now 2017-Feb-25 20:38 UTC.
Position N 34°39' E 035°03'.

Length 347 m; draft 13.7 m.

Type: Ship (hazmat cat A). MMSI: 235070914.

Date/timePositionNaut miles runAvg speedWind from/ knotsBaromVisibWave heightAir tempDewpointWater temp
2017-Feb-24 23:24N 34°39' E 035°03'1715.3
2017-Feb-24 22:16N 34°22' E 035°06'1115.3
2017-Feb-24 21:34N 34°11' E 035°09'1515.3
2017-Feb-24 20:33N 33°56' E 035°11'24 1.4
2017-Feb-24 03:33N 33°39' E 034°50'  
2017-Feb-20 06:26N 35°45' E 014°48'1313.7
2017-Feb-20 05:29N 35°49' E 014°33'1 0.1
2017-Feb-19 18:05N 35°49' E 014°32'0 0.0
2017-Feb-19 16:29N 35°49' E 014°32'1 0.1
2017-Feb-19 05:32N 35°49' E 014°34'8 6.7
2017-Feb-19 04:17N 35°45' E 014°24'1520.8
2017-Feb-19 03:32N 35°53' E 014°08'2420.5
2017-Feb-19 02:22N 36°06' E 013°43'55421.2
2017-Feb-18 00:15N 40°42' E 003°30'1521.2
2017-Feb-17 23:33N 40°49' E 003°13'2121.3
2017-Feb-17 22:33N 40°59' E 002°48'2221.5
2017-Feb-17 21:33N 41°09' E 002°23'1413.7
2017-Feb-17 20:32N 41°19' E 002°10'2 1.5
2017-Feb-17 19:32N 41°21' E 002°10'1 0.0
2017-Feb-16 04:30N 41°20' E 002°10'5 4.8
2017-Feb-16 03:33N 41°15' E 002°12'1414.0
2017-Feb-16 02:33N 41°05' E 002°00'2221.9
2017-Feb-16 01:34N 40°49' E 001°41'2222.4
2017-Feb-16 00:33N 40°33' E 001°20'2322.6
2017-Feb-15 23:33N 40°18' E 000°58'6722.3
2017-Feb-15 20:33N 39°32' W 000°06'1211.4
2017-Feb-15 19:32N 39°26' W 000°19'0 0.0
2017-Feb-15 18:25N 39°26' W 000°19'0 0.0
2017-Feb-15 17:27N 39°26' W 000°19'0 0.0
2017-Feb-15 16:30N 39°26' W 000°19'0 0.0
2017-Feb-15 15:24N 39°26' W 000°19'0 0.0
2017-Feb-15 14:08N 39°26' W 000°19'0 0.0
2017-Feb-15 09:09N 39°26' W 000°19'0 0.0
2017-Feb-15 05:31N 39°26' W 000°19'  

Dump ship's entire track history